Time;durP1;ratioP1;P1;durP2;ratioP2;P2;SDS_P1;SDS_P2;PMS_P1;PMS_P2;Temp;Humidity;BMP_temperature;BMP_pressure;BME280_temperature;BME280_humidity;BME280_pressure;Samples;Min_cycle;Max_cycle;Signal;HPM_P1;HPM_P2
2022/07/30 00:02:17;;;;;;;4.65;2.85;;;18.10;99.90;;;;;;5106173;28;20043;-85
2022/07/30 00:04:43;;;;;;;6.72;3.22;;;18.10;99.90;;;;;;5100360;28;20051;-85
2022/07/30 00:07:09;;;;;;;13.35;3.75;;;18.10;99.90;;;;;;5102706;28;20143;-86
2022/07/30 00:09:35;;;;;;;5.75;3.70;;;18.00;99.90;;;;;;5099273;28;20065;-85
2022/07/30 00:12:00;;;;;;;7.70;3.72;;;18.00;99.90;;;;;;5097105;28;20140;-86
2022/07/30 00:14:26;;;;;;;10.07;4.90;;;18.00;99.90;;;;;;5091459;28;21334;-86
2022/07/30 00:16:53;;;;;;;7.07;4.38;;;18.00;99.90;;;;;;5101869;28;20024;-79
2022/07/30 00:19:19;;;;;;;6.30;3.90;;;18.10;99.90;;;;;;5100254;28;20069;-86
2022/07/30 00:21:45;;;;;;;4.22;3.83;;;18.10;99.90;;;;;;5096408;28;20058;-86
2022/07/30 00:24:10;;;;;;;6.20;4.03;;;18.10;99.90;;;;;;5100096;28;20378;-86
2022/07/30 00:26:36;;;;;;;7.43;4.22;;;18.10;99.90;;;;;;5095283;28;20486;-85
2022/07/30 00:29:03;;;;;;;4.72;4.07;;;18.20;99.90;;;;;;5091178;28;20027;-85
2022/07/30 00:31:29;;;;;;;4.53;4.03;;;18.20;99.90;;;;;;5104803;28;20123;-86
2022/07/30 00:33:55;;;;;;;9.13;4.13;;;18.20;99.90;;;;;;5089590;28;20110;-79
2022/07/30 00:36:21;;;;;;;9.40;4.32;;;18.20;99.90;;;;;;5079782;28;20032;-86
2022/07/30 00:38:47;;;;;;;6.32;3.55;;;18.30;99.90;;;;;;5104086;28;20106;-82
2022/07/30 00:41:13;;;;;;;5.45;3.70;;;18.20;99.90;;;;;;5100485;28;20094;-85
2022/07/30 00:43:38;;;;;;;5.45;3.67;;;18.20;99.90;;;;;;5095024;28;20362;-85
2022/07/30 00:46:04;;;;;;;5.43;3.88;;;18.20;99.90;;;;;;5094698;28;20031;-86
2022/07/30 00:48:29;;;;;;;6.25;3.80;;;18.30;99.90;;;;;;5099449;28;20114;-87
2022/07/30 00:50:55;;;;;;;6.35;4.03;;;18.20;99.90;;;;;;5102023;28;20115;-81
2022/07/30 00:53:21;;;;;;;4.75;4.00;;;18.20;99.90;;;;;;5103387;28;20035;-88
2022/07/30 00:55:47;;;;;;;4.43;3.67;;;18.20;99.90;;;;;;5096140;28;20032;-87
2022/07/30 00:58:12;;;;;;;4.45;3.75;;;18.30;99.90;;;;;;5098209;28;20027;-86
2022/07/30 01:00:38;;;;;;;4.35;3.78;;;18.20;99.90;;;;;;5098552;28;20028;-86
2022/07/30 01:03:04;;;;;;;6.80;3.92;;;18.20;99.90;;;;;;5093599;28;20427;-84
2022/07/30 01:05:29;;;;;;;8.35;3.90;;;18.20;99.90;;;;;;5073997;28;20032;-86
2022/07/30 01:07:55;;;;;;;4.50;3.70;;;18.20;99.90;;;;;;5094890;28;20073;-81
2022/07/30 01:10:21;;;;;;;4.25;3.85;;;18.20;99.90;;;;;;5101351;28;20028;-87
2022/07/30 01:12:47;;;;;;;4.32;3.50;;;18.20;99.90;;;;;;5088917;28;20025;-87
2022/07/30 01:15:13;;;;;;;4.05;3.65;;;18.20;99.90;;;;;;5089026;28;20142;-86
2022/07/30 01:17:39;;;;;;;3.83;3.53;;;18.20;99.90;;;;;;5092450;28;20472;-86
2022/07/30 01:20:15;;;;;;;4.85;4.25;;;18.20;99.90;;;;;;5093241;28;20024;-84
2022/07/30 01:23:01;;;;;;;4.50;3.78;;;18.20;99.90;;;;;;5106734;28;20043;-84
2022/07/30 01:25:51;;;;;;;6.55;4.40;;;18.20;99.90;;;;;;5078537;28;20020;-84
2022/07/30 01:28:22;;;;;;;8.15;4.28;;;18.20;99.90;;;;;;5111839;28;20210;-84
2022/07/30 01:30:49;;;;;;;5.35;4.30;;;18.20;99.90;;;;;;5104854;28;20054;-83
2022/07/30 01:33:16;;;;;;;4.78;4.32;;;18.20;99.90;;;;;;5103777;28;20061;-83
2022/07/30 01:35:45;;;;;;;4.95;4.32;;;18.10;99.90;;;;;;5100667;28;20027;-84
2022/07/30 01:38:13;;;;;;;5.55;3.85;;;18.10;99.90;;;;;;5092652;28;20357;-85
2022/07/30 01:40:39;;;;;;;7.60;3.83;;;18.10;99.90;;;;;;5104706;28;20031;-87
2022/07/30 01:43:07;;;;;;;4.25;3.85;;;18.00;99.90;;;;;;5098728;28;20032;-87
2022/07/30 01:45:34;;;;;;;5.85;4.47;;;18.00;99.90;;;;;;5098576;28;20031;-86
2022/07/30 01:48:04;;;;;;;4.63;4.22;;;18.00;99.90;;;;;;5100226;28;20035;-85
2022/07/30 01:50:31;;;;;;;4.70;4.20;;;18.00;99.90;;;;;;5107270;28;20031;-84
2022/07/30 01:52:57;;;;;;;7.53;3.95;;;18.00;99.90;;;;;;5094434;28;20032;-80
2022/07/30 01:55:39;;;;;;;4.32;3.88;;;18.00;99.90;;;;;;5089334;28;20032;-86
2022/07/30 01:58:06;;;;;;;4.13;3.53;;;18.00;99.90;;;;;;5091110;28;20031;-85
2022/07/30 02:00:36;;;;;;;4.20;3.80;;;17.90;99.90;;;;;;5094080;28;20027;-86
2022/07/30 02:03:03;;;;;;;;;;;17.90;99.90;;;;;;5108291;27;20111;-82
2022/07/30 02:05:31;;;;;;;4.53;3.80;;;17.90;99.90;;;;;;5092642;28;19908;-86
2022/07/30 02:08:22;;;;;;;5.18;3.72;;;17.80;99.90;;;;;;5092366;28;20515;-80
2022/07/30 02:10:52;;;;;;;4.35;3.95;;;17.80;99.90;;;;;;5100548;28;20134;-86
2022/07/30 02:13:21;;;;;;;5.88;3.40;;;17.70;99.90;;;;;;5105903;28;20081;-86
2022/07/30 02:15:53;;;;;;;4.95;3.78;;;17.70;99.90;;;;;;5095960;28;20417;-86
2022/07/30 02:18:55;;;;;;;6.55;3.95;;;17.70;99.90;;;;;;5101266;28;20069;-86
2022/07/30 02:21:23;;;;;;;6.30;4.10;;;17.60;99.90;;;;;;5092284;28;20085;-86
2022/07/30 02:23:51;;;;;;;6.85;3.88;;;17.60;99.90;;;;;;5096461;28;20178;-85
2022/07/30 02:26:20;;;;;;;7.70;4.35;;;17.60;99.90;;;;;;5082917;28;20338;-87
2022/07/30 02:28:51;;;;;;;4.60;4.20;;;17.60;99.90;;;;;;5092714;28;20405;-87
2022/07/30 02:31:22;;;;;;;9.70;4.60;;;17.60;99.90;;;;;;5099610;28;20050;-84
2022/07/30 02:33:49;;;;;;;4.50;3.63;;;17.50;99.90;;;;;;5098195;28;20416;-86
2022/07/30 02:36:17;;;;;;;5.55;4.30;;;17.50;99.90;;;;;;5076451;28;20028;-85
2022/07/30 02:38:44;;;;;;;6.22;3.90;;;17.40;99.90;;;;;;5102645;28;20023;-85
2022/07/30 02:41:12;;;;;;;4.55;4.10;;;17.40;99.90;;;;;;5094696;28;20031;-87
2022/07/30 02:43:39;;;;;;;5.63;3.60;;;17.40;99.90;;;;;;5092802;28;20073;-86
2022/07/30 02:46:07;;;;;;;4.68;3.40;;;17.30;99.90;;;;;;5089755;28;20025;-86
2022/07/30 02:48:34;;;;;;;4.10;3.70;;;17.30;99.90;;;;;;5107895;28;20384;-86
2022/07/30 02:51:02;;;;;;;6.50;4.43;;;17.30;99.90;;;;;;5092441;28;20054;-79
2022/07/30 02:53:29;;;;;;;4.82;3.70;;;17.30;99.90;;;;;;5094277;28;20034;-86
2022/07/30 02:55:56;;;;;;;4.05;3.63;;;17.20;99.90;;;;;;5090720;28;20110;-87
2022/07/30 02:58:24;;;;;;;4.72;4.22;;;17.20;99.90;;;;;;5097149;28;20202;-87
2022/07/30 03:00:54;;;;;;;5.53;4.18;;;17.20;99.90;;;;;;5092214;28;20078;-86
2022/07/30 03:03:20;;;;;;;4.78;4.03;;;17.10;99.90;;;;;;5100936;28;20143;-86
2022/07/30 03:05:50;;;;;;;4.10;3.70;;;17.10;99.90;;;;;;5095673;28;20027;-86
2022/07/30 03:08:16;;;;;;;7.73;4.10;;;17.10;99.90;;;;;;5099600;28;20028;-84
2022/07/30 03:10:43;;;;;;;5.25;4.20;;;17.10;99.90;;;;;;5094157;28;20040;-87
2022/07/30 03:13:11;;;;;;;5.72;4.38;;;17.10;99.90;;;;;;5100782;28;20023;-86
2022/07/30 03:15:43;;;;;;;4.28;3.88;;;17.00;99.90;;;;;;5090929;28;20032;-87
2022/07/30 03:18:12;;;;;;;6.07;3.80;;;17.00;99.90;;;;;;5084327;28;20027;-88
2022/07/30 03:20:38;;;;;;;8.52;4.25;;;16.90;99.90;;;;;;5088175;28;20044;-88
2022/07/30 03:23:05;;;;;;;7.15;3.85;;;16.90;99.90;;;;;;5093598;28;20046;-81
2022/07/30 03:25:32;;;;;;;4.93;3.78;;;16.90;99.90;;;;;;5099775;28;20372;-87
2022/07/30 03:28:01;;;;;;;5.03;4.22;;;16.90;99.90;;;;;;5095410;28;20031;-87
2022/07/30 03:30:28;;;;;;;8.95;4.47;;;16.80;99.90;;;;;;5094534;28;20028;-88
2022/07/30 03:32:55;;;;;;;7.38;4.47;;;16.90;99.90;;;;;;5103326;28;20028;-87
2022/07/30 03:35:23;;;;;;;7.38;4.70;;;16.80;99.90;;;;;;5080116;28;20110;-88
2022/07/30 03:37:50;;;;;;;4.93;4.00;;;16.80;99.90;;;;;;5095430;28;20028;-87
2022/07/30 03:40:16;;;;;;;4.30;3.90;;;16.80;99.90;;;;;;5096530;28;20020;-85
2022/07/30 03:42:44;;;;;;;4.80;4.07;;;16.80;99.90;;;;;;5090257;28;20076;-87
2022/07/30 03:45:12;;;;;;;4.75;4.35;;;16.70;99.90;;;;;;5093840;28;20137;-84
2022/07/30 03:47:40;;;;;;;8.57;3.63;;;16.70;99.90;;;;;;5099232;28;20024;-85
2022/07/30 03:50:07;;;;;;;5.00;3.97;;;16.70;99.90;;;;;;5097927;28;20024;-84
2022/07/30 03:52:37;;;;;;;5.00;3.88;;;16.70;99.90;;;;;;5086227;28;20124;-88
2022/07/30 03:55:04;;;;;;;4.75;3.80;;;16.70;99.90;;;;;;5086688;28;20051;-80
2022/07/30 03:57:29;;;;;;;4.75;3.45;;;16.70;99.90;;;;;;5074001;28;20039;-87
2022/07/30 03:59:55;;;;;;;4.38;3.60;;;16.60;99.90;;;;;;5101832;28;20056;-88
2022/07/30 04:02:21;;;;;;;5.53;3.67;;;16.70;99.90;;;;;;5112118;28;20036;-88
2022/07/30 04:04:46;;;;;;;4.53;3.40;;;16.60;99.90;;;;;;5098991;28;20050;-87
2022/07/30 04:07:12;;;;;;;4.25;3.45;;;16.60;99.90;;;;;;5103340;28;20471;-88
2022/07/30 04:09:38;;;;;;;4.03;3.33;;;16.60;99.90;;;;;;5100878;28;20453;-87
2022/07/30 04:12:04;;;;;;;5.68;3.67;;;16.60;99.90;;;;;;5100031;28;20416;-80
2022/07/30 04:14:41;;;;;;;5.35;4.30;;;16.60;99.90;;;;;;5090641;28;20031;-89
2022/07/30 04:17:21;;;;;;;9.00;4.18;;;16.60;99.90;;;;;;5095947;28;20115;-82
2022/07/30 04:19:50;;;;;;;5.35;3.83;;;16.60;99.90;;;;;;5090332;28;20031;-84
2022/07/30 04:22:23;;;;;;;6.70;3.72;;;16.60;99.90;;;;;;5106529;28;20038;-89
2022/07/30 04:24:51;;;;;;;5.10;3.75;;;16.60;99.90;;;;;;5102421;28;20086;-79
2022/07/30 04:27:17;;;;;;;6.70;3.47;;;16.70;99.90;;;;;;5107529;28;20020;-85
2022/07/30 04:29:43;;;;;;;5.05;3.05;;;16.70;99.90;;;;;;5114788;28;20024;-88
2022/07/30 04:32:09;;;;;;;9.55;4.03;;;16.70;99.90;;;;;;5106639;28;20175;-79
2022/07/30 04:34:35;;;;;;;5.80;3.60;;;16.70;99.90;;;;;;5104432;28;20024;-83
2022/07/30 04:37:00;;;;;;;5.72;3.40;;;16.80;99.90;;;;;;5107738;28;20072;-82
2022/07/30 04:39:26;;;;;;;5.93;3.95;;;16.80;99.90;;;;;;5120227;28;20020;-86
2022/07/30 04:41:52;;;;;;;5.55;3.63;;;16.90;99.90;;;;;;5119876;28;20028;-82
2022/07/30 04:44:18;;;;;;;5.80;3.40;;;16.90;99.90;;;;;;5124880;28;20046;-86
2022/07/30 04:46:44;;;;;;;4.38;3.50;;;17.00;99.90;;;;;;5101112;28;20028;-80
2022/07/30 04:49:12;;;;;;;8.02;4.22;;;17.00;99.90;;;;;;5127546;28;20029;-81
2022/07/30 04:51:39;;;;;;;7.22;3.90;;;17.10;99.90;;;;;;5105227;28;20024;-85
2022/07/30 04:54:09;;;;;;;7.70;3.67;;;17.10;99.90;;;;;;5103719;28;20024;-88
2022/07/30 04:56:36;;;;;;;;;;;17.20;99.90;;;;;;5091644;28;20027;-86
2022/07/30 04:59:02;;;;;;;6.82;4.00;;;17.30;99.90;;;;;;5077878;28;20392;-84
2022/07/30 05:01:34;;;;;;;5.55;3.65;;;17.30;99.90;;;;;;5098522;28;20023;-86
2022/07/30 05:04:01;;;;;;;4.45;3.65;;;17.40;99.90;;;;;;5095957;28;20032;-86
2022/07/30 05:06:27;;;;;;;4.75;3.70;;;17.50;99.90;;;;;;5096804;28;20111;-86
2022/07/30 05:08:54;;;;;;;5.65;4.30;;;17.60;99.90;;;;;;5102487;28;20028;-88
2022/07/30 05:11:19;;;;;;;5.72;3.72;;;17.70;99.90;;;;;;5093675;28;20032;-87
2022/07/30 05:13:47;;;;;;;7.18;4.00;;;17.80;99.90;;;;;;5104473;28;20077;-87
2022/07/30 05:16:14;;;;;;;4.93;3.50;;;17.90;99.90;;;;;;5092610;28;20110;-86
2022/07/30 05:18:40;;;;;;;7.75;4.10;;;18.00;99.90;;;;;;5102617;28;20084;-87
2022/07/30 05:21:06;;;;;;;5.28;3.22;;;18.10;99.90;;;;;;5101798;28;20050;-87
2022/07/30 05:23:32;;;;;;;4.20;3.50;;;18.20;99.90;;;;;;5098726;28;20090;-89
2022/07/30 05:25:58;;;;;;;4.10;3.70;;;18.30;99.90;;;;;;5091004;28;20026;-89
2022/07/30 05:28:27;;;;;;;5.28;4.05;;;18.40;99.90;;;;;;5097802;28;20389;-88
2022/07/30 05:30:53;;;;;;;5.65;3.65;;;18.50;99.90;;;;;;5069908;28;20069;-85
2022/07/30 05:33:20;;;;;;;6.47;3.80;;;18.60;99.90;;;;;;5091170;28;20047;-88
2022/07/30 05:35:46;;;;;;;6.78;3.92;;;18.70;99.90;;;;;;5088844;28;20027;-91
2022/07/30 05:38:13;;;;;;;6.55;4.07;;;18.90;99.90;;;;;;5098272;28;20027;-82
2022/07/30 05:40:38;;;;;;;5.72;3.47;;;18.90;99.90;;;;;;5103846;28;20507;-92
2022/07/30 05:43:04;;;;;;;5.35;3.58;;;19.00;99.90;;;;;;5095363;28;20028;-87
2022/07/30 05:45:30;;;;;;;5.97;3.30;;;19.10;99.90;;;;;;5091306;28;20016;-92
2022/07/30 05:47:55;;;;;;;6.18;4.00;;;19.20;99.90;;;;;;5093937;28;20024;-91
2022/07/30 05:50:21;;;;;;;7.13;3.78;;;19.30;99.90;;;;;;5081687;28;20424;-85
2022/07/30 05:52:47;;;;;;;7.78;4.03;;;19.40;99.90;;;;;;5078956;28;20041;-83
2022/07/30 05:55:13;;;;;;;5.45;3.55;;;19.50;99.90;;;;;;5083961;28;20017;-79
2022/07/30 05:57:40;;;;;;;7.15;3.72;;;19.60;99.90;;;;;;5092565;28;20020;-83
2022/07/30 06:00:09;;;;;;;8.43;4.18;;;19.70;99.90;;;;;;5078184;28;20036;-81
2022/07/30 06:02:36;;;;;;;8.57;4.03;;;19.80;99.90;;;;;;5111132;27;20039;-78
2022/07/30 06:05:02;;;;;;;7.93;4.18;;;19.90;99.90;;;;;;5095015;28;20564;-81
2022/07/30 06:07:28;;;;;;;5.32;3.25;;;20.00;99.90;;;;;;5103178;28;20019;-86
2022/07/30 06:09:58;;;;;;;6.35;3.90;;;20.20;99.90;;;;;;5100523;28;20028;-85
2022/07/30 06:12:25;;;;;;;;;;;20.30;99.90;;;;;;5106005;28;20055;-91
2022/07/30 06:14:50;;;;;;;4.97;3.42;;;20.40;99.90;;;;;;5087081;28;19977;-85
2022/07/30 06:17:16;;;;;;;9.27;4.20;;;20.40;99.90;;;;;;5079400;28;20078;-83
2022/07/30 06:19:42;;;;;;;7.47;4.38;;;20.60;99.90;;;;;;5074201;28;20637;-84
2022/07/30 06:22:07;;;;;;;6.25;3.50;;;20.70;99.90;;;;;;5080808;28;20048;-84
2022/07/30 06:24:33;;;;;;;10.10;4.15;;;20.80;99.90;;;;;;5065402;28;20032;-84
2022/07/30 06:26:59;;;;;;;5.25;3.00;;;20.90;99.90;;;;;;5087489;28;20058;-83
2022/07/30 06:29:24;;;;;;;5.97;3.00;;;20.90;99.90;;;;;;5080673;28;20031;-84
2022/07/30 06:31:50;;;;;;;7.95;3.55;;;21.00;99.90;;;;;;5086627;28;20051;-84
2022/07/30 06:34:16;;;;;;;4.95;3.22;;;21.10;99.90;;;;;;5080862;28;20025;-86
2022/07/30 06:36:41;;;;;;;7.30;3.78;;;21.20;99.90;;;;;;5079130;28;20059;-83
2022/07/30 06:39:07;;;;;;;5.13;3.75;;;21.30;99.90;;;;;;5084142;28;20507;-85
2022/07/30 06:41:32;;;;;;;4.63;3.70;;;21.50;99.90;;;;;;5092739;28;20504;-84
2022/07/30 06:43:58;;;;;;;7.25;3.53;;;21.60;99.90;;;;;;5088759;28;20035;-86
2022/07/30 06:46:23;;;;;;;6.07;3.60;;;21.70;99.90;;;;;;5083710;28;20023;-84
2022/07/30 06:48:49;;;;;;;4.00;3.60;;;21.70;99.60;;;;;;5087871;28;20038;-85
2022/07/30 06:51:15;;;;;;;7.38;3.75;;;21.80;99.70;;;;;;5087359;28;20468;-85
2022/07/30 06:53:41;;;;;;;7.65;3.70;;;21.80;98.90;;;;;;5084333;28;20535;-87
2022/07/30 06:56:09;;;;;;;8.43;3.38;;;21.90;98.80;;;;;;5089566;28;20069;-83
2022/07/30 06:58:35;;;;;;;7.97;5.00;;;21.90;98.70;;;;;;5092219;28;20098;-89
2022/07/30 07:01:00;;;;;;;8.05;4.57;;;22.10;97.80;;;;;;5090840;28;20124;-86
2022/07/30 07:03:26;;;;;;;9.50;4.78;;;22.20;98.10;;;;;;5086183;28;20069;-86
2022/07/30 07:05:52;;;;;;;6.10;3.78;;;22.30;97.90;;;;;;5064761;28;20047;-85
2022/07/30 07:08:18;;;;;;;5.90;4.22;;;22.30;98.40;;;;;;5113959;27;20061;-85
2022/07/30 07:10:43;;;;;;;5.93;4.20;;;22.40;98.00;;;;;;5099872;28;20495;-86
2022/07/30 07:13:11;;;;;;;7.63;3.95;;;22.40;97.80;;;;;;5087980;28;20527;-82
2022/07/30 07:15:37;;;;;;;6.22;4.60;;;22.40;97.50;;;;;;5054184;28;20044;-84
2022/07/30 07:18:03;;;;;;;7.82;4.72;;;22.50;97.10;;;;;;5083183;28;20050;-82
2022/07/30 07:20:29;;;;;;;6.85;3.78;;;22.70;96.60;;;;;;5073150;28;20044;-84
2022/07/30 07:22:54;;;;;;;7.53;4.30;;;22.70;97.00;;;;;;5080208;28;20103;-83
2022/07/30 07:25:20;;;;;;;9.45;4.40;;;22.70;96.60;;;;;;5074986;28;20052;-83
2022/07/30 07:27:46;;;;;;;7.18;4.50;;;22.90;96.40;;;;;;5083591;28;20020;-84
2022/07/30 07:30:12;;;;;;;9.48;4.13;;;22.90;95.70;;;;;;5089559;28;20465;-81
2022/07/30 07:32:37;;;;;;;11.43;4.80;;;23.00;95.70;;;;;;5083361;28;20044;-85
2022/07/30 07:35:04;;;;;;;8.93;4.88;;;23.00;95.70;;;;;;5082003;28;20035;-88
2022/07/30 07:37:30;;;;;;;8.52;4.60;;;23.20;94.70;;;;;;5077304;28;20040;-86
2022/07/30 07:39:56;;;;;;;7.68;3.95;;;23.20;94.40;;;;;;5086686;28;20016;-87
2022/07/30 07:42:22;;;;;;;16.25;4.55;;;23.20;94.40;;;;;;5070151;28;20044;-86
2022/07/30 07:44:47;;;;;;;7.03;4.38;;;23.30;94.40;;;;;;5088244;28;20111;-87
2022/07/30 07:47:13;;;;;;;5.70;3.35;;;23.30;94.30;;;;;;5086954;28;20430;-84
2022/07/30 07:49:39;;;;;;;5.40;3.10;;;23.40;93.90;;;;;;5077096;28;20500;-87
2022/07/30 07:52:05;;;;;;;9.50;4.57;;;23.40;93.80;;;;;;5079833;28;20058;-90
2022/07/30 07:54:31;;;;;;;6.32;4.22;;;23.50;93.10;;;;;;5080729;28;20107;-91
2022/07/30 07:56:56;;;;;;;9.98;3.47;;;23.50;92.60;;;;;;5078599;28;20482;-90
2022/07/30 07:59:22;;;;;;;6.57;4.03;;;23.50;92.80;;;;;;5089072;28;20032;-89
2022/07/30 08:01:48;;;;;;;6.15;3.55;;;23.60;92.70;;;;;;5080157;28;20036;-90
2022/07/30 08:04:14;;;;;;;7.07;3.60;;;23.60;92.80;;;;;;5074562;28;20084;-84
2022/07/30 08:06:40;;;;;;;5.15;2.63;;;23.60;92.90;;;;;;5074850;28;20035;-88
2022/07/30 08:09:06;;;;;;;6.80;3.42;;;23.60;92.30;;;;;;5080477;28;20036;-86
2022/07/30 08:11:31;;;;;;;6.60;4.50;;;23.70;91.30;;;;;;5078607;28;20036;-87
2022/07/30 08:13:57;;;;;;;5.05;3.20;;;23.80;91.30;;;;;;5082197;28;20122;-86
2022/07/30 08:16:22;;;;;;;6.95;3.03;;;23.80;92.00;;;;;;5085396;28;20031;-88
2022/07/30 08:18:48;;;;;;;6.95;2.92;;;23.90;91.90;;;;;;5080630;28;21532;-86
2022/07/30 08:21:14;;;;;;;5.55;2.80;;;24.10;90.10;;;;;;5079373;28;20044;-85
2022/07/30 08:23:40;;;;;;;7.03;3.35;;;24.20;87.70;;;;;;5081909;28;20476;-86
2022/07/30 08:26:06;;;;;;;6.90;3.40;;;24.30;88.20;;;;;;5083901;28;20057;-88
2022/07/30 08:28:31;;;;;;;5.65;3.00;;;24.30;86.40;;;;;;5081455;28;20142;-83
2022/07/30 08:30:57;;;;;;;6.90;3.13;;;24.20;86.80;;;;;;5081922;28;20033;-86
2022/07/30 08:33:23;;;;;;;7.53;3.10;;;24.00;87.30;;;;;;5083364;28;20476;-88
2022/07/30 08:35:48;;;;;;;8.13;3.38;;;23.90;87.70;;;;;;5091217;28;20074;-82
2022/07/30 08:38:14;;;;;;;12.77;3.85;;;24.00;88.80;;;;;;5076438;28;20039;-86
2022/07/30 08:40:40;;;;;;;6.05;2.85;;;24.10;88.10;;;;;;5080388;28;20021;-87
2022/07/30 08:43:07;;;;;;;7.20;3.40;;;24.30;86.80;;;;;;5082314;28;20732;-82
2022/07/30 08:45:34;;;;;;;9.98;3.67;;;24.30;86.50;;;;;;5081019;28;20703;-90
2022/07/30 08:48:00;;;;;;;3.85;3.03;;;24.20;85.80;;;;;;5089664;28;20024;-88
2022/07/30 08:50:28;;;;;;;4.97;2.65;;;24.30;85.30;;;;;;5086967;28;20025;-87
2022/07/30 08:52:55;;;;;;;5.18;2.60;;;24.30;86.30;;;;;;5085282;28;20047;-84
2022/07/30 08:55:22;;;;;;;4.05;2.55;;;24.30;86.70;;;;;;5082342;28;20032;-88
2022/07/30 08:57:49;;;;;;;5.75;2.80;;;24.50;83.80;;;;;;5077918;28;20035;-82
2022/07/30 09:00:15;;;;;;;6.85;3.03;;;24.50;82.50;;;;;;5090851;28;20127;-85
2022/07/30 09:02:41;;;;;;;5.50;3.03;;;24.60;82.10;;;;;;5081848;28;20020;-87
2022/07/30 09:05:08;;;;;;;5.28;2.90;;;24.70;81.50;;;;;;5083201;28;20121;-84
2022/07/30 09:07:35;;;;;;;2.92;2.40;;;24.70;81.40;;;;;;5077852;28;20047;-87
2022/07/30 09:10:01;;;;;;;7.65;2.75;;;24.70;81.50;;;;;;5068397;28;20020;-82
2022/07/30 09:12:56;;;;;;;4.85;3.03;;;24.80;81.40;;;;;;5078986;28;20045;-82
2022/07/30 09:15:24;;;;;;;2.80;2.20;;;24.80;80.90;;;;;;5029213;28;20045;-85
2022/07/30 09:18:02;;;;;;;6.95;2.65;;;25.00;81.10;;;;;;5086721;28;20020;-84
2022/07/30 09:20:31;;;;;;;6.95;2.80;;;25.30;79.40;;;;;;5086928;28;20186;-87
2022/07/30 09:22:59;;;;;;;4.28;2.67;;;25.20;79.10;;;;;;5090599;28;20027;-86
2022/07/30 09:25:34;;;;;;;6.07;2.55;;;25.30;79.30;;;;;;5077150;28;20028;-80
2022/07/30 09:28:03;;;;;;;7.82;3.40;;;25.40;79.50;;;;;;5077507;28;20032;-88
2022/07/30 09:30:55;;;;;;;8.20;2.85;;;25.50;78.30;;;;;;5073749;28;20101;-85
2022/07/30 09:33:40;;;;;;;6.78;3.13;;;25.40;78.30;;;;;;5088422;28;20044;-84
2022/07/30 09:36:09;;;;;;;5.05;2.63;;;25.30;78.60;;;;;;5089296;28;20036;-84
2022/07/30 09:38:47;;;;;;;4.18;2.70;;;25.20;78.80;;;;;;5089770;28;20028;-84
2022/07/30 09:41:15;;;;;;;4.25;2.35;;;25.40;79.70;;;;;;5071004;28;20028;-85
2022/07/30 09:43:49;;;;;;;7.55;2.55;;;25.70;77.30;;;;;;5089306;28;20043;-86
2022/07/30 09:46:16;;;;;;;5.53;2.88;;;25.80;76.90;;;;;;5064686;28;20430;-85
2022/07/30 09:48:42;;;;;;;4.40;2.22;;;25.90;77.00;;;;;;5093411;28;20028;-83
2022/07/30 09:51:08;;;;;;;5.72;2.55;;;25.80;77.40;;;;;;5101679;28;20031;-83
2022/07/30 09:53:34;;;;;;;3.67;2.42;;;25.70;77.40;;;;;;5088531;28;20901;-84
2022/07/30 09:56:20;;;;;;;4.35;2.55;;;25.60;75.80;;;;;;5092439;28;20093;-83
2022/07/30 09:58:47;;;;;;;2.33;2.13;;;25.40;75.70;;;;;;5100015;27;20035;-81
2022/07/30 10:01:15;;;;;;;3.17;2.15;;;25.40;75.50;;;;;;5102010;27;20032;-86
2022/07/30 10:03:42;;;;;;;5.10;2.20;;;25.60;75.90;;;;;;5075507;28;20048;-84
2022/07/30 10:06:10;;;;;;;3.13;2.00;;;25.80;75.60;;;;;;5102959;27;20024;-82
2022/07/30 10:08:41;;;;;;;5.05;2.42;;;25.90;75.60;;;;;;5087165;28;20107;-84
2022/07/30 10:11:13;;;;;;;6.68;2.28;;;26.00;75.20;;;;;;5073667;28;20087;-84
2022/07/30 10:13:40;;;;;;;9.70;2.42;;;26.10;73.00;;;;;;5089083;28;20035;-82
2022/07/30 10:16:06;;;;;;;4.25;1.85;;;26.30;71.90;;;;;;5072677;28;20032;-84
2022/07/30 10:18:34;;;;;;;5.07;1.88;;;26.40;73.70;;;;;;5104424;28;20027;-84
2022/07/30 10:21:00;;;;;;;5.22;2.28;;;26.40;72.40;;;;;;5083310;28;20519;-84
2022/07/30 10:23:28;;;;;;;9.38;2.45;;;26.30;73.00;;;;;;5084191;28;20307;-83
2022/07/30 10:26:00;;;;;;;2.95;1.58;;;25.90;70.80;;;;;;5075403;28;20035;-83
2022/07/30 10:28:28;;;;;;;2.60;2.22;;;25.90;72.20;;;;;;5072585;28;20024;-82
2022/07/30 10:30:55;;;;;;;3.53;2.10;;;26.00;71.90;;;;;;5085373;28;20032;-83
2022/07/30 10:33:24;;;;;;;7.15;2.10;;;26.30;71.10;;;;;;5072732;28;20494;-83
2022/07/30 10:35:50;;;;;;;5.20;2.00;;;26.50;71.00;;;;;;5079697;28;20025;-82
2022/07/30 10:38:19;;;;;;;5.55;2.00;;;26.90;69.50;;;;;;5074703;28;20445;-84
2022/07/30 10:40:49;;;;;;;3.78;2.05;;;27.00;69.60;;;;;;5077116;28;20058;-81
2022/07/30 10:43:27;;;;;;;5.43;1.67;;;27.20;70.00;;;;;;5084288;28;20028;-84
2022/07/30 10:46:09;;;;;;;2.90;1.80;;;27.30;68.90;;;;;;5088522;28;20473;-81
2022/07/30 10:48:35;;;;;;;3.42;1.80;;;27.30;68.20;;;;;;5088225;28;20020;-83
2022/07/30 10:51:00;;;;;;;7.90;2.10;;;27.20;68.90;;;;;;5077173;28;20043;-83
2022/07/30 10:53:32;;;;;;;3.17;1.52;;;27.20;68.80;;;;;;5073740;28;20488;-79
2022/07/30 10:56:21;;;;;;;3.08;1.60;;;27.30;68.20;;;;;;5078412;28;20032;-80
2022/07/30 10:59:09;;;;;;;6.25;1.88;;;27.60;68.10;;;;;;5064951;28;20029;-75
2022/07/30 11:01:47;;;;;;;7.25;1.92;;;27.80;67.60;;;;;;5077691;28;20048;-76
2022/07/30 11:04:29;;;;;;;6.40;2.03;;;27.90;66.50;;;;;;5072982;28;20154;-77
2022/07/30 11:07:19;;;;;;;5.70;1.88;;;27.90;66.40;;;;;;5069571;28;20032;-78
2022/07/30 11:09:46;;;;;;;7.25;1.98;;;28.20;65.70;;;;;;5073453;28;20035;-77
2022/07/30 11:12:11;;;;;;;3.40;1.90;;;28.30;66.70;;;;;;5067689;28;20037;-79
2022/07/30 11:14:46;;;;;;;3.22;2.25;;;28.50;65.60;;;;;;5068585;28;20488;-78
2022/07/30 11:17:15;;;;;;;2.97;1.50;;;28.70;65.30;;;;;;5071907;28;20066;-79
2022/07/30 11:20:03;;;;;;;4.43;1.73;;;28.90;63.60;;;;;;5072960;28;20079;-89
2022/07/30 11:22:43;;;;;;;3.40;1.80;;;28.90;62.90;;;;;;5076692;28;20401;-88
2022/07/30 11:25:21;;;;;;;6.38;2.17;;;28.80;63.60;;;;;;5067530;28;20029;-92
2022/07/30 11:27:49;;;;;;;4.25;2.30;;;28.90;65.00;;;;;;5069517;28;20047;-78
2022/07/30 11:30:14;;;;;;;3.10;2.15;;;28.90;63.80;;;;;;5073844;28;20448;-78
2022/07/30 11:32:50;;;;;;;2.58;1.65;;;28.20;63.30;;;;;;5072230;28;20071;-76
2022/07/30 11:35:22;;;;;;;3.60;1.67;;;27.80;64.20;;;;;;5066999;28;20024;-75
2022/07/30 11:38:06;;;;;;;4.65;1.98;;;27.50;64.80;;;;;;5071001;28;20028;-78
2022/07/30 11:40:36;;;;;;;4.97;1.70;;;27.50;65.30;;;;;;5061859;28;20032;-78
2022/07/30 11:43:18;;;;;;;;;;;27.70;63.70;;;;;;5063202;28;20059;-79
2022/07/30 11:45:45;;;;;;;3.08;1.85;;;27.90;63.10;;;;;;5069429;28;20083;-78
2022/07/30 11:48:13;;;;;;;2.72;1.80;;;28.10;63.20;;;;;;5070228;28;21293;-78
2022/07/30 11:50:40;;;;;;;3.85;1.60;;;28.10;62.90;;;;;;5076402;28;20024;-79
2022/07/30 11:53:13;;;;;;;3.10;1.65;;;28.30;63.40;;;;;;5067312;28;20462;-78
2022/07/30 11:55:48;;;;;;;5.15;1.80;;;28.50;64.10;;;;;;5076962;28;20024;-78
2022/07/30 11:58:33;;;;;;;2.20;1.48;;;28.70;62.40;;;;;;5079180;28;20393;-79
2022/07/30 12:01:11;;;;;;;2.88;1.42;;;28.90;62.50;;;;;;5076203;28;20442;-77
2022/07/30 12:03:40;;;;;;;6.65;1.63;;;29.10;61.80;;;;;;5068400;28;20028;-79
2022/07/30 12:06:08;;;;;;;6.82;2.10;;;29.20;62.80;;;;;;5080179;28;20025;-78
2022/07/30 12:08:47;;;;;;;7.55;2.13;;;29.00;61.90;;;;;;5082494;28;20024;-78
2022/07/30 12:11:14;;;;;;;3.08;1.75;;;28.90;61.50;;;;;;5075156;28;20496;-79
2022/07/30 12:13:42;;;;;;;3.33;1.85;;;28.90;61.60;;;;;;5082894;28;20028;-78
2022/07/30 12:16:09;;;;;;;6.40;1.67;;;28.90;61.00;;;;;;5064546;28;20458;-77
2022/07/30 12:18:36;;;;;;;6.45;1.77;;;28.70;61.20;;;;;;5072783;28;20158;-79
2022/07/30 12:21:04;;;;;;;4.18;1.67;;;28.50;61.30;;;;;;5083503;28;20074;-79
2022/07/30 12:23:30;;;;;;;3.45;1.70;;;28.20;61.60;;;;;;5093540;28;20492;-78
2022/07/30 12:25:57;;;;;;;6.00;1.80;;;28.00;61.10;;;;;;5096708;28;20026;-77
2022/07/30 12:28:29;;;;;;;5.22;1.67;;;28.00;61.90;;;;;;5097173;28;20137;-78
2022/07/30 12:30:56;;;;;;;1.88;1.27;;;28.10;61.50;;;;;;5097451;28;20032;-80
2022/07/30 12:33:23;;;;;;;1.75;1.48;;;28.30;61.60;;;;;;5092179;28;20020;-78
2022/07/30 12:35:49;;;;;;;4.03;1.50;;;28.60;60.90;;;;;;5106214;28;20024;-77
2022/07/30 12:38:17;;;;;;;5.18;1.50;;;28.70;59.60;;;;;;5100570;28;20023;-77
2022/07/30 12:41:00;;;;;;;1.98;1.70;;;28.70;59.70;;;;;;5088704;28;20097;-76
2022/07/30 12:44:04;;;;;;;2.45;1.48;;;28.70;60.40;;;;;;5077621;28;20031;-76
2022/07/30 12:46:40;;;;;;;1.92;1.25;;;28.70;60.20;;;;;;5037911;28;20128;-77
2022/07/30 12:49:07;;;;;;;2.35;1.35;;;28.80;59.10;;;;;;5028701;28;20031;-77
2022/07/30 12:51:50;;;;;;;2.53;1.75;;;28.90;59.60;;;;;;5031374;28;20053;-76
2022/07/30 12:54:17;;;;;;;1.48;1.30;;;29.10;59.50;;;;;;5028031;28;20086;-77
2022/07/30 12:57:04;;;;;;;2.38;1.50;;;29.20;58.80;;;;;;5034800;28;20029;-77